createdAt,value
2023-02-11T00:02:01.830Z,5.18
2023-02-11T00:04:29.657Z,4.56
2023-02-11T00:06:57.421Z,4.08
2023-02-11T00:09:25.186Z,3.75
2023-02-11T00:11:53.164Z,3.49
2023-02-11T00:14:20.918Z,3.27
2023-02-11T00:16:48.673Z,3.06
2023-02-11T00:19:16.553Z,2.87
2023-02-11T00:21:44.421Z,2.70
2023-02-11T00:24:12.076Z,3.86
2023-02-11T00:26:39.840Z,7.14
2023-02-11T00:29:07.603Z,8.33
2023-02-11T00:31:35.416Z,6.85
2023-02-11T00:34:03.338Z,5.53
2023-02-11T00:36:31.206Z,4.77
2023-02-11T00:38:59.072Z,4.19
2023-02-11T00:41:26.733Z,3.74
2023-02-11T00:43:54.490Z,3.39
2023-02-11T00:46:22.322Z,3.10
2023-02-11T00:48:51.993Z,2.85
2023-02-11T00:51:19.827Z,2.64
2023-02-11T00:53:47.489Z,2.46
2023-02-11T00:56:15.154Z,2.32
2023-02-11T00:58:42.914Z,3.29
2023-02-11T01:01:10.726Z,6.46
2023-02-11T01:03:38.446Z,7.65
2023-02-11T01:06:06.207Z,6.27
2023-02-11T01:08:33.974Z,5.14
2023-02-11T01:11:01.671Z,4.34
2023-02-11T01:13:29.403Z,3.69
2023-02-11T01:15:57.153Z,3.26
2023-02-11T01:18:24.929Z,2.93
2023-02-11T01:20:52.689Z,2.62
2023-02-11T01:23:20.376Z,2.36
2023-02-11T01:25:48.165Z,2.16
2023-02-11T01:28:16.214Z,2.34
2023-02-11T01:30:43.996Z,5.09
2023-02-11T01:33:11.830Z,7.47
2023-02-11T01:35:39.590Z,6.79
2023-02-11T01:38:07.348Z,5.47
2023-02-11T01:40:35.116Z,4.49
2023-02-11T01:43:02.772Z,3.78
2023-02-11T01:45:30.543Z,3.27
2023-02-11T01:47:58.198Z,2.88
2023-02-11T01:50:25.983Z,2.58
2023-02-11T01:52:53.730Z,2.33
2023-02-11T01:55:40.535Z,2.12
2023-02-11T01:58:08.302Z,2.01
2023-02-11T02:00:36.682Z,3.99
2023-02-11T02:03:04.440Z,7.05
2023-02-11T02:05:32.218Z,7.37
2023-02-11T02:07:59.981Z,5.88
2023-02-11T02:10:27.732Z,4.71
2023-02-11T02:12:55.497Z,3.91
2023-02-11T02:15:23.687Z,3.36
2023-02-11T02:17:51.431Z,2.93
2023-02-11T02:20:19.603Z,2.58
2023-02-11T02:22:47.267Z,2.31
2023-02-11T02:25:14.928Z,2.08
2023-02-11T02:27:42.689Z,1.87
2023-02-11T02:30:10.461Z,1.70
2023-02-11T02:32:38.109Z,1.57
2023-02-11T02:35:05.880Z,3.01
2023-02-11T02:37:33.846Z,6.38
2023-02-11T02:40:01.561Z,7.00
2023-02-11T02:42:29.375Z,5.67
2023-02-11T02:44:57.242Z,4.56
2023-02-11T02:47:24.902Z,3.81
2023-02-11T02:49:52.570Z,3.28
2023-02-11T02:52:20.227Z,2.88
2023-02-11T02:54:47.915Z,2.56
2023-02-11T02:57:15.655Z,2.30
2023-02-11T02:59:43.419Z,2.11
2023-02-11T03:02:11.184Z,1.94
2023-02-11T03:04:38.946Z,1.78
2023-02-11T03:07:06.607Z,1.62
2023-02-11T03:09:34.370Z,1.49
2023-02-11T03:12:02.135Z,3.03
2023-02-11T03:14:30.308Z,6.34
2023-02-11T03:16:58.072Z,7.63
2023-02-11T03:19:25.733Z,6.31
2023-02-11T03:21:53.501Z,4.96
2023-02-11T03:24:21.159Z,4.06
2023-02-11T03:26:48.821Z,3.42
2023-02-11T03:29:16.605Z,2.94
2023-02-11T03:31:44.398Z,2.57
2023-02-11T03:34:12.938Z,2.27
2023-02-11T03:36:41.412Z,2.02
2023-02-11T03:39:09.078Z,1.82
2023-02-11T03:41:36.843Z,1.65
2023-02-11T03:44:04.600Z,2.51
2023-02-11T03:46:32.374Z,5.62
2023-02-11T03:49:00.131Z,7.34
2023-02-11T03:51:27.795Z,6.36
2023-02-11T03:53:55.559Z,4.99
2023-02-11T03:56:23.221Z,3.98
2023-02-11T03:58:50.982Z,3.32
2023-02-11T04:01:18.732Z,2.77
2023-02-11T04:03:46.612Z,2.35
2023-02-11T04:06:14.379Z,2.03
2023-02-11T04:08:42.138Z,1.80
2023-02-11T04:11:09.800Z,1.61
2023-02-11T04:13:37.566Z,1.47
2023-02-11T04:16:05.342Z,2.32
2023-02-11T04:18:33.098Z,5.63
2023-02-11T04:21:00.856Z,6.88
2023-02-11T04:23:28.619Z,5.65
2023-02-11T04:25:56.382Z,4.54
2023-02-11T04:28:24.239Z,3.71
2023-02-11T04:30:52.133Z,3.14
2023-02-11T04:33:19.982Z,2.70
2023-02-11T04:35:47.847Z,2.34
2023-02-11T04:38:15.715Z,2.04
2023-02-11T04:40:43.478Z,1.79
2023-02-11T04:43:11.243Z,1.60
2023-02-11T04:45:38.948Z,1.42
2023-02-11T04:48:06.771Z,1.30
2023-02-11T04:50:34.434Z,2.83
2023-02-11T04:53:02.204Z,6.04
2023-02-11T04:55:29.969Z,6.30
2023-02-11T04:57:57.729Z,4.97
2023-02-11T05:00:25.489Z,3.99
2023-02-11T05:02:53.352Z,3.33
2023-02-11T05:05:21.231Z,2.87
2023-02-11T05:07:48.987Z,2.51
2023-02-11T05:10:16.752Z,2.18
2023-02-11T05:12:44.512Z,1.91
2023-02-11T05:15:12.174Z,1.66
2023-02-11T05:17:39.935Z,1.46
2023-02-11T05:20:07.706Z,1.31
2023-02-11T05:22:35.468Z,1.17
2023-02-11T05:25:03.227Z,1.29
2023-02-11T05:27:30.999Z,3.89
2023-02-11T05:29:58.762Z,6.33
2023-02-11T05:32:26.519Z,5.57
2023-02-11T05:34:54.190Z,4.36
2023-02-11T05:37:21.966Z,3.52
2023-02-11T05:39:49.708Z,2.94
2023-02-11T05:42:17.471Z,2.53
2023-02-11T05:44:45.241Z,2.20
2023-02-11T05:47:13.000Z,1.92
2023-02-11T05:49:40.767Z,1.66
2023-02-11T05:52:08.528Z,1.45
2023-02-11T05:54:36.233Z,1.27
2023-02-11T05:57:03.953Z,1.11
2023-02-11T05:59:31.720Z,0.99
2023-02-11T06:01:59.483Z,0.97
2023-02-11T06:04:27.245Z,3.17
2023-02-11T06:06:54.908Z,5.65
2023-02-11T06:09:22.672Z,5.02
2023-02-11T06:11:50.434Z,3.78
2023-02-11T06:14:18.197Z,2.98
2023-02-11T06:16:45.960Z,2.39
2023-02-11T06:19:13.624Z,1.97
2023-02-11T06:21:44.203Z,1.67
2023-02-11T06:24:12.116Z,1.44
2023-02-11T06:26:39.889Z,1.28
2023-02-11T06:29:07.659Z,1.17
2023-02-11T06:31:35.453Z,1.07
2023-02-11T06:34:03.284Z,0.98
2023-02-11T06:36:31.253Z,0.90
2023-02-11T06:38:59.015Z,1.05
2023-02-11T06:41:26.774Z,3.62
2023-02-11T06:43:54.540Z,6.27
2023-02-11T06:46:22.358Z,6.14
2023-02-11T06:48:50.068Z,4.84
2023-02-11T06:51:17.845Z,3.81
2023-02-11T06:53:45.600Z,3.15
2023-02-11T06:56:13.360Z,2.70
2023-02-11T06:58:41.124Z,2.34
2023-02-11T07:01:08.888Z,2.05
2023-02-11T07:03:36.758Z,1.79
2023-02-11T07:06:05.759Z,1.56
2023-02-11T07:08:33.509Z,1.37
2023-02-11T07:11:01.278Z,1.21
2023-02-11T07:13:29.038Z,1.07
2023-02-11T07:15:56.731Z,1.77
2023-02-11T07:18:24.462Z,4.55
2023-02-11T07:20:52.124Z,6.07
2023-02-11T07:23:19.890Z,5.13
2023-02-11T07:25:47.649Z,4.02
2023-02-11T07:28:15.416Z,3.16
2023-02-11T07:30:43.215Z,2.55
2023-02-11T07:33:10.943Z,2.12
2023-02-11T07:35:40.441Z,1.84
2023-02-11T07:38:09.440Z,1.60
2023-02-11T07:40:37.203Z,1.41
2023-02-11T07:43:04.967Z,1.25
2023-02-11T07:45:32.730Z,1.29
2023-02-11T07:48:00.501Z,3.45
2023-02-11T07:50:28.254Z,6.03
2023-02-11T07:52:55.920Z,5.73
2023-02-11T07:55:23.690Z,4.48
2023-02-11T07:57:51.462Z,3.51
2023-02-11T08:00:21.093Z,2.91
2023-02-11T08:02:49.130Z,2.53
2023-02-11T08:05:16.992Z,2.24
2023-02-11T08:07:44.665Z,2.02
2023-02-11T08:10:12.424Z,1.86
2023-02-11T08:12:40.077Z,1.71
2023-02-11T08:15:07.841Z,1.59
2023-02-11T08:17:35.608Z,1.49
2023-02-11T08:20:03.263Z,1.81
2023-02-11T08:22:30.925Z,4.44
2023-02-11T08:24:58.896Z,5.74
2023-02-11T08:27:29.831Z,4.84
2023-02-11T08:29:59.643Z,3.89
2023-02-11T08:32:27.509Z,3.26
2023-02-11T08:34:55.172Z,2.82
2023-02-11T08:37:23.035Z,2.57
2023-02-11T08:39:51.214Z,2.41
2023-02-11T08:42:18.980Z,2.28
2023-02-11T08:44:46.742Z,2.17
2023-02-11T08:47:14.400Z,2.08
2023-02-11T08:49:42.886Z,2.02
2023-02-11T08:52:10.645Z,1.97
2023-02-11T08:54:38.308Z,1.94
2023-02-11T08:57:06.069Z,2.66
2023-02-11T08:59:33.837Z,5.67
2023-02-11T09:02:01.625Z,6.84
2023-02-11T09:04:29.378Z,5.80
2023-02-11T09:06:57.022Z,4.76
2023-02-11T09:09:24.786Z,4.16
2023-02-11T09:11:57.384Z,3.79
2023-02-11T09:14:25.126Z,3.53
2023-02-11T09:16:53.522Z,3.38
2023-02-11T09:19:21.376Z,3.25
2023-02-11T09:21:49.377Z,3.15
2023-02-11T09:24:17.110Z,3.08
2023-02-11T09:26:44.872Z,3.05
2023-02-11T09:29:12.628Z,3.05
2023-02-11T09:31:40.490Z,3.10
2023-02-11T09:34:08.672Z,3.16
2023-02-11T09:36:37.581Z,3.23
2023-02-11T09:39:10.864Z,3.30
2023-02-11T09:41:39.136Z,3.37
2023-02-11T09:44:06.897Z,3.44
2023-02-11T09:46:34.594Z,3.53
2023-02-11T09:49:02.425Z,3.58
2023-02-11T09:51:30.087Z,3.60
2023-02-11T09:54:00.094Z,3.59
2023-02-11T09:56:28.484Z,3.55
2023-02-11T09:58:56.252Z,3.52
2023-02-11T10:01:23.951Z,3.49
2023-02-11T10:03:51.677Z,3.47
2023-02-11T10:06:20.267Z,3.46
2023-02-11T10:08:48.033Z,3.43
2023-02-11T10:11:29.686Z,3.41
2023-02-11T10:13:58.910Z,3.40
2023-02-11T10:16:26.573Z,3.39
2023-02-11T10:18:54.340Z,3.37
2023-02-11T10:21:22.017Z,3.39
2023-02-11T10:23:49.760Z,3.38
2023-02-11T10:26:17.528Z,3.40
2023-02-11T10:28:45.249Z,3.41
2023-02-11T10:31:15.982Z,3.42
2023-02-11T10:33:43.889Z,3.44
2023-02-11T10:36:11.550Z,3.47
2023-02-11T10:38:39.518Z,3.50
2023-02-11T10:41:07.389Z,3.55
2023-02-11T10:43:35.149Z,3.57
2023-02-11T10:46:02.963Z,3.61
2023-02-11T10:48:30.782Z,3.65
2023-02-11T10:50:58.479Z,3.69
2023-02-11T10:53:26.511Z,3.72
2023-02-11T10:55:54.183Z,3.75
2023-02-11T10:58:21.938Z,3.80
2023-02-11T11:00:49.925Z,3.84
2023-02-11T11:03:17.876Z,3.90
2023-02-11T11:05:45.537Z,3.96
2023-02-11T11:08:13.521Z,4.02
2023-02-11T11:10:44.146Z,4.10
2023-02-11T11:13:11.900Z,4.16
2023-02-11T11:15:39.586Z,4.24
2023-02-11T11:18:20.510Z,4.29
2023-02-11T11:20:49.848Z,4.35
2023-02-11T11:23:17.803Z,4.40
2023-02-11T11:25:46.280Z,4.42
2023-02-11T11:28:14.007Z,4.47
2023-02-11T11:30:41.849Z,4.53
2023-02-11T11:33:09.575Z,4.57
2023-02-11T11:35:37.236Z,4.63
2023-02-11T11:38:05.246Z,4.70
2023-02-11T11:40:32.972Z,4.77
2023-02-11T11:43:00.736Z,4.82
2023-02-11T11:45:28.497Z,4.88
2023-02-11T11:47:58.518Z,4.94
2023-02-11T11:50:26.684Z,4.97
2023-02-11T11:52:54.341Z,5.03
2023-02-11T11:55:22.111Z,5.08
2023-02-11T11:57:49.870Z,5.11
2023-02-11T12:00:17.744Z,5.12
2023-02-11T12:02:45.529Z,5.12
2023-02-11T12:05:13.374Z,5.13
2023-02-11T12:07:41.338Z,5.13
2023-02-11T12:10:09.098Z,5.12
2023-02-11T12:12:36.864Z,5.09
2023-02-11T12:15:04.727Z,5.09
2023-02-11T12:17:32.389Z,5.05
2023-02-11T12:20:00.150Z,5.02
2023-02-11T12:22:27.918Z,5.01
2023-02-11T12:24:55.580Z,4.98
2023-02-11T12:27:23.343Z,4.96
2023-02-11T12:29:51.115Z,4.93
2023-02-11T12:32:18.807Z,4.91
2023-02-11T12:34:46.536Z,4.89
2023-02-11T12:37:14.196Z,4.88
2023-02-11T12:39:41.959Z,4.85
2023-02-11T12:42:28.583Z,4.83
2023-02-11T12:44:56.329Z,4.82
2023-02-11T12:47:24.196Z,4.81
2023-02-11T12:49:51.860Z,4.79
2023-02-11T12:52:19.519Z,4.79
2023-02-11T12:54:47.306Z,4.77
2023-02-11T12:57:15.048Z,4.76
2023-02-11T12:59:42.810Z,4.76
2023-02-11T13:02:10.502Z,4.75
2023-02-11T13:04:38.134Z,4.73
2023-02-11T13:07:06.615Z,4.71
2023-02-11T13:09:34.278Z,4.71
2023-02-11T13:12:21.918Z,4.71
2023-02-11T13:14:49.572Z,4.70
2023-02-11T13:17:17.556Z,4.70
2023-02-11T13:19:45.304Z,4.69
2023-02-11T13:22:13.067Z,4.69
2023-02-11T13:24:40.838Z,4.69
2023-02-11T13:27:08.496Z,4.67
2023-02-11T13:29:36.266Z,4.67
2023-02-11T13:32:04.075Z,4.66
2023-02-11T13:34:31.728Z,4.64
2023-02-11T13:36:59.447Z,4.64
2023-02-11T13:39:27.106Z,4.63
2023-02-11T13:41:54.872Z,4.62
2023-02-11T13:44:22.956Z,4.61
2023-02-11T13:46:50.919Z,4.59
2023-02-11T13:49:18.575Z,4.57
2023-02-11T13:51:46.344Z,4.55
2023-02-11T13:54:14.609Z,4.54
2023-02-11T13:56:46.469Z,4.53
2023-02-11T13:59:14.231Z,4.52
2023-02-11T14:01:42.741Z,4.52
2023-02-11T14:04:29.524Z,4.51
2023-02-11T14:07:15.820Z,4.52
2023-02-11T14:09:43.587Z,4.50
2023-02-11T14:12:11.350Z,4.50
2023-02-11T14:14:39.012Z,4.48
2023-02-11T14:17:06.720Z,4.47
2023-02-11T14:19:34.542Z,4.46
2023-02-11T14:22:02.509Z,4.46
2023-02-11T14:24:31.199Z,4.44
2023-02-11T14:26:58.857Z,4.43
2023-02-11T14:29:26.520Z,4.39
2023-02-11T14:31:54.407Z,4.99
2023-02-11T14:34:22.252Z,7.94
2023-02-11T14:36:50.016Z,9.41
2023-02-11T14:39:17.679Z,8.49
2023-02-11T14:41:45.645Z,7.33
2023-02-11T14:44:13.410Z,6.40
2023-02-11T14:46:41.102Z,5.78
2023-02-11T14:49:09.346Z,5.45
2023-02-11T14:51:37.112Z,7.04
2023-02-11T14:54:04.879Z,8.46
2023-02-11T14:56:34.789Z,7.67
2023-02-11T14:59:03.064Z,6.64
2023-02-11T15:01:32.586Z,6.09
2023-02-11T15:04:02.808Z,8.14
2023-02-11T15:06:30.554Z,9.42
2023-02-11T15:09:01.023Z,8.49
2023-02-11T15:11:28.679Z,7.25
2023-02-11T15:13:56.612Z,6.30
2023-02-11T15:16:24.397Z,5.98
2023-02-11T15:18:52.246Z,8.25
2023-02-11T15:21:19.904Z,10.21
2023-02-11T15:23:47.668Z,9.25
2023-02-11T15:26:15.534Z,7.75
2023-02-11T15:28:43.198Z,6.75
2023-02-11T15:31:10.919Z,6.40
2023-02-11T15:33:38.703Z,8.43
2023-02-11T15:36:06.692Z,9.10
2023-02-11T15:38:34.457Z,7.99
2023-02-11T15:41:02.319Z,6.88
2023-02-11T15:43:30.086Z,6.13
2023-02-11T15:45:57.781Z,7.31
2023-02-11T15:48:27.158Z,9.90
2023-02-11T15:50:55.118Z,9.97
2023-02-11T15:53:23.395Z,8.60
2023-02-11T15:55:51.159Z,7.25
2023-02-11T15:58:18.922Z,6.36
2023-02-11T16:00:46.691Z,6.66
2023-02-11T16:03:14.449Z,9.50
2023-02-11T16:05:42.216Z,10.94
2023-02-11T16:08:09.885Z,9.61
2023-02-11T16:10:37.638Z,8.10
2023-02-11T16:13:05.427Z,6.96
2023-02-11T16:15:33.169Z,6.81
2023-02-11T16:18:00.930Z,9.27
2023-02-11T16:20:28.697Z,9.74
2023-02-11T16:22:56.459Z,8.40
2023-02-11T16:25:24.227Z,7.26
2023-02-11T16:27:51.987Z,6.42
2023-02-11T16:30:19.646Z,7.60
2023-02-11T16:32:47.412Z,9.48
2023-02-11T16:35:15.175Z,8.55
2023-02-11T16:37:42.846Z,7.32
2023-02-11T16:40:12.031Z,6.38
2023-02-11T16:42:40.002Z,6.82
2023-02-11T16:45:07.904Z,9.36
2023-02-11T16:47:35.734Z,9.71
2023-02-11T16:50:04.736Z,8.15
2023-02-11T16:52:32.496Z,6.92
2023-02-11T16:55:00.254Z,7.20
2023-02-11T16:57:30.138Z,8.91
2023-02-11T16:59:59.574Z,8.13
2023-02-11T17:02:27.336Z,7.03
2023-02-11T17:04:55.225Z,7.32
2023-02-11T17:07:23.067Z,9.21
2023-02-11T17:09:51.982Z,8.49
2023-02-11T17:12:19.721Z,7.20
2023-02-11T17:14:47.484Z,6.75
2023-02-11T17:17:15.144Z,8.70
2023-02-11T17:19:42.779Z,9.53
2023-02-11T17:22:10.467Z,8.18
2023-02-11T17:24:38.234Z,6.96
2023-02-11T17:27:05.891Z,7.28
2023-02-11T17:29:33.552Z,9.24
2023-02-11T17:32:01.390Z,9.00
2023-02-11T17:34:29.593Z,7.50
2023-02-11T17:36:58.902Z,6.67
2023-02-11T17:39:26.661Z,8.49
2023-02-11T17:41:54.422Z,9.98
2023-02-11T17:44:22.188Z,8.77
2023-02-11T17:46:49.947Z,7.34
2023-02-11T17:49:17.818Z,6.93
2023-02-11T17:51:45.584Z,9.18
2023-02-11T17:54:13.354Z,9.85
2023-02-11T17:56:41.108Z,8.64
2023-02-11T17:59:08.804Z,7.42
2023-02-11T18:01:36.535Z,6.54
2023-02-11T18:04:04.714Z,7.91
2023-02-11T18:06:34.011Z,10.41
2023-02-11T18:09:04.540Z,10.32
2023-02-11T18:11:32.301Z,8.84
2023-02-11T18:13:59.958Z,7.33
2023-02-11T18:16:29.623Z,6.66
2023-02-11T18:18:57.454Z,8.49
2023-02-11T18:21:25.219Z,10.73
2023-02-11T18:23:52.961Z,10.15
2023-02-11T18:26:20.633Z,8.55
2023-02-11T18:28:48.606Z,7.11
2023-02-11T18:31:16.455Z,7.45
2023-02-11T18:33:44.431Z,9.72
2023-02-11T18:36:12.090Z,10.70
2023-02-11T18:38:39.755Z,9.07
2023-02-11T18:41:07.625Z,7.65
2023-02-11T18:43:35.402Z,6.70
2023-02-11T18:46:03.214Z,6.72
2023-02-11T18:48:31.023Z,9.32
2023-02-11T18:50:58.779Z,10.28
2023-02-11T18:53:26.453Z,9.17
2023-02-11T18:55:54.554Z,7.68
2023-02-11T18:58:22.798Z,6.69
2023-02-11T19:00:50.585Z,6.98
2023-02-11T19:03:18.522Z,9.38
2023-02-11T19:05:46.284Z,9.55
2023-02-11T19:08:14.049Z,8.16
2023-02-11T19:10:42.015Z,6.95
2023-02-11T19:13:09.799Z,7.69
2023-02-11T19:15:37.645Z,10.45
2023-02-11T19:18:05.307Z,10.73
2023-02-11T19:20:33.688Z,8.96
2023-02-11T19:23:01.457Z,7.53
2023-02-11T19:25:29.417Z,7.24
2023-02-11T19:27:57.246Z,9.48
2023-02-11T19:30:25.051Z,9.68
2023-02-11T19:32:54.347Z,8.20
2023-02-11T19:35:24.475Z,6.95
2023-02-11T19:37:52.273Z,6.32
2023-02-11T19:40:21.427Z,8.08
2023-02-11T19:42:49.089Z,10.47
2023-02-11T19:45:16.751Z,11.23
2023-02-11T19:47:44.619Z,9.67
2023-02-11T19:50:12.278Z,8.11
2023-02-11T19:52:40.781Z,7.00
2023-02-11T19:55:08.522Z,7.15
2023-02-11T19:57:36.184Z,9.66
2023-02-11T20:00:03.961Z,10.69
2023-02-11T20:02:31.952Z,9.45
2023-02-11T20:04:59.679Z,7.96
2023-02-11T20:07:27.444Z,6.91
2023-02-11T20:09:55.209Z,7.70
2023-02-11T20:12:22.854Z,10.09
2023-02-11T20:14:50.531Z,10.31
2023-02-11T20:17:18.296Z,8.79
2023-02-11T20:19:46.068Z,7.48
2023-02-11T20:22:13.925Z,7.17
2023-02-11T20:24:41.692Z,9.48
2023-02-11T20:27:11.707Z,10.50
2023-02-11T20:29:39.467Z,9.22
2023-02-11T20:32:07.403Z,7.76
2023-02-11T20:34:35.306Z,6.86
2023-02-11T20:37:04.296Z,8.37
2023-02-11T20:39:32.055Z,10.61
2023-02-11T20:41:59.821Z,10.09
2023-02-11T20:44:27.584Z,8.52
2023-02-11T20:46:55.869Z,7.32
2023-02-11T20:49:23.966Z,8.35
2023-02-11T20:51:53.953Z,10.44
2023-02-11T20:54:22.125Z,9.78
2023-02-11T20:56:51.360Z,8.35
2023-02-11T20:59:19.496Z,7.17
2023-02-11T21:01:47.322Z,6.94
2023-02-11T21:04:15.438Z,9.32
2023-02-11T21:06:43.096Z,10.98
2023-02-11T21:09:10.872Z,9.93
2023-02-11T21:11:38.623Z,8.46
2023-02-11T21:14:06.384Z,7.28
2023-02-11T21:16:34.149Z,7.43
2023-02-11T21:19:03.038Z,10.02
2023-02-11T21:21:30.804Z,11.38
2023-02-11T21:23:58.980Z,10.05
2023-02-11T21:26:26.743Z,8.41
2023-02-11T21:28:55.429Z,7.33
2023-02-11T21:31:23.504Z,7.18
2023-02-11T21:33:51.367Z,9.73
2023-02-11T21:36:19.131Z,11.33
2023-02-11T21:38:46.901Z,9.89
2023-02-11T21:41:14.564Z,8.37
2023-02-11T21:43:42.222Z,7.21
2023-02-11T21:46:10.094Z,7.21
2023-02-11T21:48:37.848Z,9.76
2023-02-11T21:51:05.818Z,11.20
2023-02-11T21:53:33.483Z,10.03
2023-02-11T21:56:01.143Z,8.59
2023-02-11T21:58:28.814Z,7.43
2023-02-11T22:00:56.608Z,7.78
2023-02-11T22:03:24.438Z,10.42
2023-02-11T22:05:52.292Z,11.17
2023-02-11T22:08:20.364Z,9.79
2023-02-11T22:10:48.134Z,8.34
2023-02-11T22:13:15.901Z,7.32
2023-02-11T22:15:43.664Z,8.51
2023-02-11T22:18:11.335Z,11.04
2023-02-11T22:20:38.965Z,11.49
2023-02-11T22:23:06.655Z,9.94
2023-02-11T22:25:34.311Z,8.49
2023-02-11T22:28:01.984Z,7.44
2023-02-11T22:30:29.730Z,8.08
2023-02-11T22:32:57.393Z,10.66
2023-02-11T22:35:25.038Z,11.50
2023-02-11T22:37:52.713Z,10.02
2023-02-11T22:40:20.481Z,8.47
2023-02-11T22:42:48.141Z,7.62
2023-02-11T22:45:15.803Z,9.66
2023-02-11T22:47:43.560Z,11.39
2023-02-11T22:50:11.231Z,10.22
2023-02-11T22:52:38.898Z,8.62
2023-02-11T22:55:07.263Z,7.49
2023-02-11T22:57:34.921Z,8.34
2023-02-11T23:00:02.694Z,10.75
2023-02-11T23:02:30.396Z,10.99
2023-02-11T23:04:59.544Z,9.43
2023-02-11T23:07:27.310Z,8.05
2023-02-11T23:09:55.073Z,7.14
2023-02-11T23:12:22.841Z,7.18
2023-02-11T23:14:50.502Z,9.94
2023-02-11T23:17:19.801Z,11.47
2023-02-11T23:19:47.475Z,10.19
2023-02-11T23:22:15.124Z,8.50
2023-02-11T23:24:42.886Z,7.44
2023-02-11T23:27:10.550Z,7.44
2023-02-11T23:29:38.210Z,9.90
2023-02-11T23:32:05.900Z,11.51
2023-02-11T23:34:33.638Z,10.37
2023-02-11T23:37:01.614Z,8.81
2023-02-11T23:39:29.369Z,7.67
2023-02-11T23:41:59.181Z,7.58
2023-02-11T23:44:26.847Z,10.06
2023-02-11T23:46:54.611Z,11.71
2023-02-11T23:49:22.375Z,10.66
2023-02-11T23:51:50.141Z,9.13
2023-02-11T23:54:17.802Z,7.90
2023-02-11T23:56:46.380Z,7.74
2023-02-11T23:59:14.061Z,10.05
